Time;durP1;ratioP1;P1;durP2;ratioP2;P2;SDS_P1;SDS_P2;PMS_P1;PMS_P2;Temp;Humidity;BMP_temperature;BMP_pressure;BME280_temperature;BME280_humidity;BME280_pressure;Samples;Min_cycle;Max_cycle;Signal;HPM_P1;HPM_P2
2023/05/08 00:01:40;;;;;;;6.05;3.60;;;;;;;8.40;48.80;102302.03;5001300;28;20052;-66
2023/05/08 00:04:05;;;;;;;7.88;3.30;;;;;;;8.33;48.65;102308.19;4985798;28;20045;-73
2023/05/08 00:06:31;;;;;;;4.40;3.83;;;;;;;8.39;49.11;102302.06;5001129;28;20235;-72
2023/05/08 00:08:56;;;;;;;3.22;2.85;;;;;;;8.44;48.67;102303.75;5000586;28;20051;-76
2023/05/08 00:11:22;;;;;;;3.25;2.80;;;;;;;8.35;48.73;102309.88;5002243;28;20113;-75
2023/05/08 00:13:47;;;;;;;4.68;3.70;;;;;;;8.50;48.48;102302.84;4999592;28;20041;-77
2023/05/08 00:16:13;;;;;;;6.40;3.97;;;;;;;8.42;48.38;102302.88;5007100;28;20960;-74
2023/05/08 00:18:39;;;;;;;4.65;3.58;;;;;;;8.20;48.93;102296.13;5016267;28;20080;-74
2023/05/08 00:21:05;;;;;;;4.20;2.97;;;;;;;8.21;48.59;102301.31;5001164;28;20037;-73
2023/05/08 00:23:32;;;;;;;3.33;3.03;;;;;;;8.36;48.62;102297.75;5001980;28;20048;-73
2023/05/08 00:26:00;;;;;;;6.45;3.30;;;;;;;8.35;48.09;102302.06;5003443;28;21030;-73
2023/05/08 00:28:26;;;;;;;4.13;2.72;;;;;;;8.27;48.40;102303.00;4985084;28;20037;-73
2023/05/08 00:30:51;;;;;;;4.05;3.08;;;;;;;7.93;48.95;102304.09;4985287;28;20479;-71
2023/05/08 00:33:17;;;;;;;3.40;2.85;;;;;;;8.13;48.20;102303.97;5000428;28;20986;-71
2023/05/08 00:35:43;;;;;;;3.60;2.72;;;;;;;8.09;48.24;102299.69;5002668;28;20026;-72
2023/05/08 00:38:09;;;;;;;4.65;3.47;;;;;;;8.19;47.97;102294.41;4986447;28;20036;-72
2023/05/08 00:40:35;;;;;;;4.00;2.75;;;;;;;8.08;48.22;102297.94;4995018;28;20344;-72
2023/05/08 00:43:01;;;;;;;4.43;2.47;;;;;;;8.32;47.71;102298.66;5002931;28;20495;-71
2023/05/08 00:45:35;;;;;;;3.03;2.55;;;;;;;8.22;47.83;102296.97;5001331;28;20049;-72
2023/05/08 00:48:01;;;;;;;4.88;3.20;;;;;;;8.09;47.87;102293.59;5004770;28;20044;-72
2023/05/08 00:50:27;;;;;;;4.50;3.22;;;;;;;7.78;48.50;102303.31;5002024;28;20052;-72
2023/05/08 00:52:55;;;;;;;3.72;3.17;;;;;;;8.01;47.88;102291.03;4995053;28;20506;-72
2023/05/08 00:55:22;;;;;;;3.63;3.28;;;;;;;8.11;47.65;102299.66;5001594;28;20383;-72
2023/05/08 00:57:47;;;;;;;5.78;2.72;;;;;;;8.03;47.93;102293.66;4999148;28;20629;-72
2023/05/08 01:00:16;;;;;;;3.65;3.33;;;;;;;7.95;47.98;102293.69;4987554;28;20033;-72
2023/05/08 01:02:43;;;;;;;4.75;2.88;;;;;;;7.99;47.48;102291.94;4983994;28;20116;-73
2023/05/08 01:05:09;;;;;;;3.13;2.83;;;;;;;7.76;47.95;102294.66;4999790;28;20033;-72
2023/05/08 01:07:35;;;;;;;4.80;3.13;;;;;;;7.64;48.62;102299.06;5001868;28;20414;-72
2023/05/08 01:10:01;;;;;;;4.10;3.08;;;;;;;8.24;46.98;102301.28;4992329;28;20037;-71
2023/05/08 01:12:44;;;;;;;4.13;3.25;;;;;;;8.05;47.49;102295.38;4994849;28;20037;-71
2023/05/08 01:15:18;;;;;;;5.50;3.15;;;;;;;8.12;47.44;102304.84;4999664;28;20041;-71
2023/05/08 01:18:14;;;;;;;6.05;3.60;;;;;;;7.99;47.94;102298.00;4991211;28;20041;-71
2023/05/08 01:20:59;;;;;;;7.07;4.07;;;;;;;8.27;47.33;102287.38;5001060;28;20128;-71
2023/05/08 01:24:03;;;;;;;3.95;3.35;;;;;;;8.45;47.06;102300.28;5008922;28;20493;-72
2023/05/08 01:26:46;;;;;;;4.72;3.67;;;;;;;8.19;47.68;102305.69;5001321;28;20033;-72
2023/05/08 01:29:15;;;;;;;4.63;3.78;;;;;;;8.37;47.53;102299.47;4999357;28;20536;-74
2023/05/08 01:32:05;;;;;;;15.05;4.35;;;;;;;8.22;47.77;102299.56;4991204;28;20761;-72
2023/05/08 01:34:34;;;;;;;7.65;4.45;;;;;;;8.14;47.93;102297.91;5000176;28;20411;-72
2023/05/08 01:37:03;;;;;;;4.47;3.47;;;;;;;8.00;48.25;102299.72;5001062;28;20041;-72
2023/05/08 01:39:34;;;;;;;6.80;4.35;;;;;;;8.13;47.69;102310.91;4965183;28;20052;-73
2023/05/08 01:42:38;;;;;;;5.35;4.00;;;;;;;8.22;47.79;102312.59;4978802;28;20040;-74
2023/05/08 01:45:09;;;;;;;4.05;3.25;;;;;;;8.18;47.95;102308.28;4978859;28;20240;-73
2023/05/08 01:47:37;;;;;;;7.00;4.40;;;;;;;8.08;48.16;102308.34;5001533;28;20449;-74
2023/05/08 01:50:12;;;;;;;5.68;4.47;;;;;;;8.10;48.03;102314.41;4990442;28;20403;-70
2023/05/08 01:52:51;;;;;;;7.85;4.88;;;;;;;8.22;47.59;102310.00;4989892;28;20034;-69
2023/05/08 01:55:24;;;;;;;6.25;4.60;;;;;;;7.99;48.41;102307.56;5001009;28;20566;-67
2023/05/08 01:57:55;;;;;;;7.10;4.05;;;;;;;8.04;48.26;102306.63;4985503;28;20300;-67
2023/05/08 02:00:22;;;;;;;6.15;4.18;;;;;;;7.90;48.18;102295.47;4991500;28;20841;-69
2023/05/08 02:02:51;;;;;;;7.05;4.50;;;;;;;7.86;48.42;102296.34;4996893;28;20124;-68
2023/05/08 02:05:18;;;;;;;6.28;3.80;;;;;;;8.06;48.04;102289.25;4991384;28;20300;-71
2023/05/08 02:07:47;;;;;;;6.80;4.20;;;;;;;7.86;48.54;102286.78;4994173;28;20037;-71
2023/05/08 02:10:15;;;;;;;6.15;4.07;;;;;;;7.94;48.32;102277.19;5013096;28;20029;-71
2023/05/08 02:12:43;;;;;;;5.45;4.03;;;;;;;7.80;48.76;102281.66;4996610;28;20056;-70
2023/05/08 02:15:12;;;;;;;6.68;5.15;;;;;;;7.84;48.84;102280.72;5021593;28;20029;-70
2023/05/08 02:17:39;;;;;;;8.13;5.18;;;;;;;7.98;48.57;102280.66;5019743;28;20028;-70
2023/05/08 02:20:06;;;;;;;6.13;3.85;;;;;;;7.78;48.94;102283.38;5018933;28;20276;-67
2023/05/08 02:22:34;;;;;;;5.90;5.05;;;;;;;7.72;49.19;102286.88;5002062;28;20116;-66
2023/05/08 02:25:01;;;;;;;7.47;4.82;;;;;;;7.71;49.13;102276.47;5018219;28;20032;-67
2023/05/08 02:27:28;;;;;;;5.78;4.70;;;;;;;7.48;49.70;102281.75;5020027;28;20070;-66
2023/05/08 02:29:56;;;;;;;7.45;4.63;;;;;;;7.63;49.26;102280.88;5021670;28;20048;-78
2023/05/08 02:32:24;;;;;;;6.80;5.30;;;;;;;7.44;49.92;102272.22;5023844;28;20287;-79
2023/05/08 02:34:51;;;;;;;6.32;4.65;;;;;;;7.51;49.64;102279.13;5007271;28;20521;-77
2023/05/08 02:37:19;;;;;;;4.25;3.78;;;;;;;7.54;49.43;102273.94;5026993;28;20029;-79
2023/05/08 02:39:47;;;;;;;8.93;4.60;;;;;;;7.36;50.32;102276.63;5007465;28;20094;-72
2023/05/08 02:42:13;;;;;;;6.60;4.60;;;;;;;7.32;50.14;102278.38;5013092;28;20151;-73
2023/05/08 02:44:39;;;;;;;5.88;3.88;;;;;;;7.49;50.16;102271.34;5018294;28;20581;-72
2023/05/08 02:47:18;;;;;;;6.10;4.43;;;;;;;7.28;50.54;102282.69;5002538;28;20028;-73
2023/05/08 02:49:53;;;;;;;5.13;4.07;;;;;;;7.11;50.62;102274.13;5012737;28;20048;-71
2023/05/08 02:52:28;;;;;;;5.35;3.83;;;;;;;7.37;50.16;102273.13;5002183;28;20070;-71
2023/05/08 02:55:03;;;;;;;5.85;4.40;;;;;;;7.43;49.58;102270.53;5014820;28;20935;-71
2023/05/08 02:57:40;;;;;;;5.32;3.80;;;;;;;7.07;50.83;102273.25;4993998;28;20041;-75
2023/05/08 03:00:19;;;;;;;4.72;3.92;;;;;;;7.23;50.30;102274.06;5020580;28;20045;-73
2023/05/08 03:03:07;;;;;;;5.93;3.83;;;;;;;6.96;51.02;102263.75;5017137;28;20231;-73
2023/05/08 03:05:38;;;;;;;5.05;4.07;;;;;;;7.08;50.27;102264.56;5014915;28;20114;-74
2023/05/08 03:08:14;;;;;;;5.05;4.10;;;;;;;6.81;51.14;102269.84;4994897;28;20056;-73
2023/05/08 03:10:44;;;;;;;4.63;3.70;;;;;;;6.65;51.60;102263.81;5016275;28;20029;-72
2023/05/08 03:13:12;;;;;;;5.65;4.20;;;;;;;6.77;50.89;102268.97;4997669;28;20543;-76
2023/05/08 03:15:45;;;;;;;4.90;4.07;;;;;;;6.62;51.33;102263.78;4977125;28;20399;-76
2023/05/08 03:18:16;;;;;;;6.22;4.50;;;;;;;6.74;50.89;102262.94;4999934;28;20291;-76
2023/05/08 03:20:45;;;;;;;7.90;4.75;;;;;;;6.66;51.24;102270.72;5001060;28;20029;-75
2023/05/08 03:23:14;;;;;;;4.75;4.18;;;;;;;6.69;51.18;102278.53;5001495;28;20044;-75
2023/05/08 03:25:43;;;;;;;6.07;5.20;;;;;;;6.75;50.92;102273.31;5019309;28;20108;-76
2023/05/08 03:28:11;;;;;;;6.85;4.85;;;;;;;6.70;51.12;102267.25;5004987;28;20136;-76
2023/05/08 03:30:40;;;;;;;6.10;4.47;;;;;;;6.60;51.42;102271.59;4986188;28;20037;-78
2023/05/08 03:33:11;;;;;;;6.17;4.53;;;;;;;6.74;50.94;102266.38;4999231;28;20865;-79
2023/05/08 03:35:38;;;;;;;5.68;4.60;;;;;;;6.61;51.06;102272.47;4987245;28;20284;-76
2023/05/08 03:38:05;;;;;;;7.25;4.95;;;;;;;6.67;51.26;102272.47;5005680;28;20297;-73
2023/05/08 03:40:41;;;;;;;5.30;4.50;;;;;;;6.59;51.44;102274.19;5016422;28;20039;-73
2023/05/08 03:43:10;;;;;;;9.73;4.38;;;;;;;6.45;51.59;102267.28;5018378;28;20464;-73
2023/05/08 03:45:38;;;;;;;7.50;4.80;;;;;;;6.58;51.44;102275.09;5005096;28;20030;-72
2023/05/08 03:48:08;;;;;;;7.60;5.07;;;;;;;6.43;51.75;102273.34;5018342;28;20052;-70
2023/05/08 03:50:36;;;;;;;6.50;5.20;;;;;;;6.61;51.14;102277.66;5001003;28;20072;-71
2023/05/08 03:53:04;;;;;;;6.07;4.93;;;;;;;6.54;51.31;102274.22;5017650;28;20068;-67
2023/05/08 03:55:30;;;;;;;7.97;5.63;;;;;;;6.56;51.15;102274.22;5002048;28;20030;-68
2023/05/08 03:58:30;;;;;;;12.35;5.30;;;;;;;6.48;51.52;102277.69;4987218;28;20053;-72
2023/05/08 04:01:17;;;;;;;5.82;4.93;;;;;;;6.47;51.46;102278.53;5010858;28;20482;-71
2023/05/08 04:03:42;;;;;;;7.47;5.07;;;;;;;6.63;50.96;102286.31;5012384;28;20052;-71
2023/05/08 04:06:26;;;;;;;5.70;4.25;;;;;;;6.49;51.26;102286.34;5022022;28;20111;-72
2023/05/08 04:09:29;;;;;;;6.43;4.30;;;;;;;6.50;51.34;102285.47;5012495;28;20072;-72
2023/05/08 04:12:23;;;;;;;6.72;4.50;;;;;;;6.57;50.94;102281.13;5018337;28;20533;-69
2023/05/08 04:14:54;;;;;;;6.65;5.30;;;;;;;6.61;50.95;102288.06;5020045;28;20173;-73
2023/05/08 04:17:39;;;;;;;5.90;4.88;;;;;;;6.36;51.47;102282.00;5021359;28;20029;-73
2023/05/08 04:20:09;;;;;;;6.82;5.13;;;;;;;6.54;50.80;102281.13;5036142;28;20523;-72
2023/05/08 04:22:37;;;;;;;7.72;5.63;;;;;;;6.32;51.67;102282.88;5010506;28;20080;-73
2023/05/08 04:25:05;;;;;;;6.03;5.22;;;;;;;6.45;51.07;102282.00;5013121;28;20716;-71
2023/05/08 04:27:32;;;;;;;7.25;4.50;;;;;;;6.22;51.69;102293.22;5022456;28;20195;-70
2023/05/08 04:29:58;;;;;;;7.82;5.32;;;;;;;6.47;51.22;102298.47;5002205;28;20107;-75
2023/05/08 04:32:26;;;;;;;6.55;4.97;;;;;;;6.43;50.96;102309.72;4983157;28;20037;-71
2023/05/08 04:34:52;;;;;;;7.78;5.35;;;;;;;6.59;50.70;102307.97;5019769;28;20474;-73
2023/05/08 04:37:25;;;;;;;6.70;5.45;;;;;;;6.36;51.43;102305.38;5019280;28;20295;-71
2023/05/08 04:39:52;;;;;;;4.95;3.88;;;;;;;6.60;50.72;102302.78;5004497;28;20040;-74
2023/05/08 04:42:19;;;;;;;5.78;4.55;;;;;;;6.67;50.39;102306.25;5018140;28;20029;-71
2023/05/08 04:44:44;;;;;;;5.15;4.65;;;;;;;6.56;50.73;102306.25;5005139;28;20825;-71
2023/05/08 04:47:10;;;;;;;7.22;5.60;;;;;;;6.46;50.83;102310.59;5022676;28;20028;-70
2023/05/08 04:49:35;;;;;;;6.80;5.05;;;;;;;6.57;50.56;102307.09;5002680;28;20037;-67
2023/05/08 04:52:01;;;;;;;7.55;5.25;;;;;;;6.78;49.67;102306.25;5017868;28;20029;-67
2023/05/08 04:54:26;;;;;;;6.72;4.90;;;;;;;6.73;50.19;102308.84;5019469;28;20119;-68
2023/05/08 04:56:54;;;;;;;6.40;5.53;;;;;;;7.05;49.46;102307.91;5020890;28;20024;-70
2023/05/08 04:59:20;;;;;;;7.85;5.68;;;;;;;7.11;49.25;102318.31;4994810;28;20053;-70
2023/05/08 05:01:46;;;;;;;9.00;5.35;;;;;;;7.47;48.47;102319.06;5000707;28;20580;-69
2023/05/08 05:04:12;;;;;;;6.35;5.47;;;;;;;8.44;46.02;102311.56;4999759;28;20046;-71
2023/05/08 05:06:37;;;;;;;7.03;5.28;;;;;;;8.35;45.84;102311.63;4998621;28;20037;-71
2023/05/08 05:09:04;;;;;;;6.07;4.72;;;;;;;8.26;45.50;102314.31;4995854;28;20292;-71
2023/05/08 05:11:30;;;;;;;8.63;4.78;;;;;;;8.04;45.95;102311.84;5004066;28;20919;-70
2023/05/08 05:13:55;;;;;;;9.60;5.18;;;;;;;7.98;46.40;102313.63;5013580;28;20044;-73
2023/05/08 05:16:21;;;;;;;6.47;4.95;;;;;;;8.04;46.50;102311.84;5015576;28;20056;-76
2023/05/08 05:18:47;;;;;;;6.13;4.78;;;;;;;8.04;45.86;102310.97;5020416;28;20136;-75
2023/05/08 05:21:13;;;;;;;5.28;4.32;;;;;;;7.91;46.13;102321.50;5034588;28;20037;-74
2023/05/08 05:23:40;;;;;;;8.38;4.47;;;;;;;7.38;47.54;102316.47;5016198;28;20266;-69
2023/05/08 05:26:05;;;;;;;6.28;5.30;;;;;;;7.91;47.28;102316.28;5017980;28;20279;-72
2023/05/08 05:28:31;;;;;;;8.40;5.10;;;;;;;9.75;42.43;102313.66;5007203;28;20584;-69
2023/05/08 05:30:57;;;;;;;5.25;4.75;;;;;;;11.22;38.94;102304.31;5022131;28;20650;-69
2023/05/08 05:33:23;;;;;;;5.22;4.32;;;;;;;11.98;37.02;102304.44;5009344;28;20070;-70
2023/05/08 05:35:49;;;;;;;5.40;4.30;;;;;;;13.19;35.67;102297.00;4999196;28;20482;-70
2023/05/08 05:38:14;;;;;;;4.75;4.28;;;;;;;14.38;33.22;102297.72;4997195;28;20553;-69
2023/05/08 05:40:40;;;;;;;6.93;4.55;;;;;;;14.83;31.82;102297.06;5001086;28;20029;-70
2023/05/08 05:43:05;;;;;;;4.75;4.10;;;;;;;14.46;32.49;102297.50;5002292;28;20045;-69
2023/05/08 05:45:31;;;;;;;4.40;4.00;;;;;;;13.41;33.83;102290.22;5019589;28;20038;-70
2023/05/08 05:47:57;;;;;;;5.07;4.57;;;;;;;12.50;35.67;102295.28;5020742;28;20094;-70
2023/05/08 05:50:26;;;;;;;5.00;4.10;;;;;;;12.04;36.73;102300.81;5018666;28;20029;-69
2023/05/08 05:52:53;;;;;;;7.57;4.32;;;;;;;11.88;37.45;102298.53;5010913;28;20770;-70
2023/05/08 05:55:19;;;;;;;5.97;5.38;;;;;;;12.42;36.12;102297.28;5015307;28;20029;-69
2023/05/08 05:57:47;;;;;;;4.75;4.28;;;;;;;11.91;37.43;102302.88;5014665;28;20055;-71
2023/05/08 06:00:15;;;;;;;6.00;4.50;;;;;;;12.04;37.11;102295.56;5003887;28;20560;-71
2023/05/08 06:02:44;;;;;;;6.47;4.57;;;;;;;12.70;35.95;102284.31;5016365;28;20494;-73
2023/05/08 06:05:13;;;;;;;5.72;4.53;;;;;;;12.59;35.52;102291.56;5021280;28;20718;-76
2023/05/08 06:07:38;;;;;;;6.25;4.30;;;;;;;13.49;34.56;102285.59;5000617;28;20039;-76
2023/05/08 06:10:04;;;;;;;5.68;4.07;;;;;;;13.49;33.32;102287.34;5007186;28;20314;-77
2023/05/08 06:12:30;;;;;;;6.07;5.07;;;;;;;12.21;36.07;102288.16;5018969;28;20413;-75
2023/05/08 06:14:57;;;;;;;8.10;4.90;;;;;;;11.47;37.86;102288.97;5020398;28;20045;-79
2023/05/08 06:17:22;;;;;;;9.13;5.63;;;;;;;11.65;37.63;102292.94;5028142;28;20033;-79
2023/05/08 06:19:49;;;;;;;5.88;5.05;;;;;;;10.46;39.95;102288.22;5033803;28;20049;-79
2023/05/08 06:22:18;;;;;;;5.90;5.35;;;;;;;9.86;41.03;102300.50;5001491;28;20041;-74
2023/05/08 06:24:44;;;;;;;5.78;5.07;;;;;;;9.62;41.57;102306.03;5019143;28;20079;-75
2023/05/08 06:27:10;;;;;;;6.00;5.22;;;;;;;10.02;40.92;102295.91;5003151;28;20036;-76
2023/05/08 06:29:36;;;;;;;6.80;5.00;;;;;;;9.64;41.79;102304.25;4989569;28;20046;-73
2023/05/08 06:32:02;;;;;;;6.95;4.97;;;;;;;9.04;43.40;102298.00;5001192;28;20041;-73
2023/05/08 06:34:27;;;;;;;8.27;6.25;;;;;;;9.49;42.72;102285.28;5011949;28;20819;-73
2023/05/08 06:36:53;;;;;;;7.85;6.22;;;;;;;10.14;41.02;102290.47;5004160;28;20045;-71
2023/05/08 06:39:19;;;;;;;8.00;5.05;;;;;;;12.94;36.47;102283.69;5017229;28;20110;-72
2023/05/08 06:41:47;;;;;;;12.25;4.47;;;;;;;13.99;33.83;102276.25;5016171;28;20490;-72
2023/05/08 06:44:21;;;;;;;5.68;4.60;;;;;;;15.80;31.34;102282.94;5016273;28;20040;-72
2023/05/08 06:46:47;;;;;;;6.63;5.28;;;;;;;16.02;30.69;102282.97;5013558;28;20472;-73
2023/05/08 06:49:14;;;;;;;4.70;4.25;;;;;;;16.44;30.00;102282.06;5018434;28;20517;-72
2023/05/08 06:51:40;;;;;;;6.55;4.95;;;;;;;15.90;30.39;102286.91;5007812;28;20037;-72
2023/05/08 06:54:07;;;;;;;5.07;4.43;;;;;;;15.16;31.43;102288.88;5002500;28;20802;-73
2023/05/08 06:56:35;;;;;;;6.70;5.10;;;;;;;16.08;30.52;102285.34;5016432;28;20080;-70
2023/05/08 06:59:00;;;;;;;15.30;5.57;;;;;;;16.03;30.06;102275.91;5019273;28;20110;-70
2023/05/08 07:01:26;;;;;;;5.93;4.68;;;;;;;15.85;30.40;102280.13;5015426;28;20382;-68
2023/05/08 07:03:54;;;;;;;7.10;4.72;;;;;;;15.78;30.46;102272.44;5018822;28;20568;-74
2023/05/08 07:06:20;;;;;;;5.30;4.38;;;;;;;16.63;29.69;102277.72;5015582;28;20581;-70
2023/05/08 07:08:45;;;;;;;7.80;4.53;;;;;;;17.23;29.25;102269.81;5014529;28;20052;-69
2023/05/08 07:11:11;;;;;;;7.72;4.85;;;;;;;17.48;28.68;102276.63;4998838;28;20098;-69
2023/05/08 07:13:36;;;;;;;6.10;4.68;;;;;;;17.54;28.21;102265.75;5004837;28;20719;-70
2023/05/08 07:16:07;;;;;;;5.15;4.65;;;;;;;17.33;28.29;102272.84;5020052;28;20056;-71
2023/05/08 07:18:33;;;;;;;8.50;4.83;;;;;;;17.15;28.67;102264.00;5003488;28;20053;-68
2023/05/08 07:20:59;;;;;;;6.13;5.05;;;;;;;18.10;26.95;102271.00;5018030;28;20488;-70
2023/05/08 07:23:26;;;;;;;4.53;4.07;;;;;;;18.34;27.68;102261.84;5013866;28;20064;-70
2023/05/08 07:25:54;;;;;;;5.10;4.60;;;;;;;18.10;27.53;102263.91;5019247;28;20116;-68
2023/05/08 07:28:20;;;;;;;6.82;4.65;;;;;;;18.25;26.71;102265.81;5016319;28;20063;-68
2023/05/08 07:30:45;;;;;;;5.03;4.53;;;;;;;17.00;28.69;102269.97;5018587;28;20043;-69
2023/05/08 07:33:11;;;;;;;9.40;5.40;;;;;;;16.83;29.30;102261.03;5019226;28;20076;-69
2023/05/08 07:35:39;;;;;;;5.53;5.03;;;;;;;17.80;28.01;102263.63;5012993;28;20045;-68
2023/05/08 07:38:06;;;;;;;5.57;4.93;;;;;;;17.54;28.36;102256.97;5021626;28;20049;-71
2023/05/08 07:40:31;;;;;;;5.40;4.80;;;;;;;18.23;27.40;102258.91;5016106;28;20044;-71
2023/05/08 07:42:57;;;;;;;5.85;5.35;;;;;;;18.33;27.25;102260.13;5012307;28;20051;-71
2023/05/08 07:45:23;;;;;;;4.35;3.95;;;;;;;18.61;27.21;102264.84;4976855;28;20153;-72
2023/05/08 07:47:51;;;;;;;5.43;4.65;;;;;;;19.09;26.52;102263.19;4996580;28;20160;-71
2023/05/08 07:50:17;;;;;;;7.05;4.95;;;;;;;19.73;25.81;102275.66;4997261;28;20126;-71
2023/05/08 07:52:44;;;;;;;4.82;4.50;;;;;;;18.25;27.50;102264.94;4997467;28;20198;-71
2023/05/08 07:55:09;;;;;;;5.10;4.57;;;;;;;17.10;29.23;102262.50;4991387;28;20225;-71
2023/05/08 07:57:36;;;;;;;4.88;4.45;;;;;;;16.72;30.50;102259.78;4994981;28;20038;-71
2023/05/08 08:00:03;;;;;;;5.55;4.90;;;;;;;16.01;31.00;102268.06;4999397;28;20040;-71
2023/05/08 08:02:39;;;;;;;7.05;5.03;;;;;;;15.86;32.19;102263.38;4997497;28;20113;-71
2023/05/08 08:05:05;;;;;;;5.80;5.20;;;;;;;15.16;32.12;102260.75;5020764;28;20499;-71
2023/05/08 08:07:34;;;;;;;7.88;5.47;;;;;;;15.32;32.67;102262.84;5017264;28;20064;-69
2023/05/08 08:10:00;;;;;;;5.53;5.03;;;;;;;14.76;33.36;102275.38;5020930;28;20044;-72
2023/05/08 08:12:27;;;;;;;7.45;5.38;;;;;;;14.39;33.84;102274.91;4998042;28;20271;-71
2023/05/08 08:14:53;;;;;;;7.40;5.45;;;;;;;14.34;33.93;102270.69;5009649;28;21673;-72
2023/05/08 08:17:19;;;;;;;8.88;6.10;;;;;;;13.78;35.40;102273.34;5015123;28;20029;-71
2023/05/08 08:19:45;;;;;;;9.27;5.85;;;;;;;13.78;35.78;102273.34;5013588;28;20057;-72
2023/05/08 08:22:13;;;;;;;6.38;5.78;;;;;;;13.66;35.77;102277.25;5021568;28;20036;-72
2023/05/08 08:24:39;;;;;;;6.75;5.45;;;;;;;13.67;36.24;102275.47;5015687;28;20119;-72
2023/05/08 08:27:04;;;;;;;6.43;4.82;;;;;;;14.26;35.10;102263.94;5022340;28;20832;-71
2023/05/08 08:29:30;;;;;;;7.28;5.78;;;;;;;15.06;33.83;102269.94;5015366;28;20041;-71
2023/05/08 08:31:55;;;;;;;8.27;5.90;;;;;;;15.54;33.02;102266.38;5020257;28;20040;-71
2023/05/08 08:34:21;;;;;;;6.10;4.93;;;;;;;14.71;34.31;102264.16;5020228;28;20044;-70
2023/05/08 08:36:47;;;;;;;7.38;5.75;;;;;;;14.22;35.16;102264.97;5021320;28;20490;-70
2023/05/08 08:39:12;;;;;;;6.32;5.72;;;;;;;14.04;36.03;102263.81;5015981;28;20065;-70
2023/05/08 08:41:38;;;;;;;6.40;5.80;;;;;;;13.87;36.27;102256.44;5009728;28;20092;-70
2023/05/08 08:44:04;;;;;;;6.65;5.38;;;;;;;13.80;36.17;102254.94;5020043;28;20044;-70
2023/05/08 08:46:34;;;;;;;6.80;6.03;;;;;;;13.10;37.54;102256.13;5001264;28;20086;-71
2023/05/08 08:49:02;;;;;;;8.32;4.93;;;;;;;14.09;36.70;102241.69;5019733;28;20145;-70
2023/05/08 08:51:34;;;;;;;8.25;6.05;;;;;;;14.29;36.62;102242.81;5017066;28;20093;-70
2023/05/08 08:54:03;;;;;;;;;;;;;;;13.69;36.97;102244.75;5016312;28;20094;-70
2023/05/08 08:56:30;;;;;;;7.32;6.20;;;;;;;13.27;37.94;102240.75;5018336;28;20015;-71
2023/05/08 08:58:58;;;;;;;7.50;6.03;;;;;;;13.61;37.54;102228.38;5019443;28;20060;-70
2023/05/08 09:01:25;;;;;;;7.03;5.90;;;;;;;14.73;36.03;102236.00;5018947;28;20150;-70
2023/05/08 09:03:51;;;;;;;6.13;5.57;;;;;;;14.49;36.05;102224.59;5032970;28;20099;-71
2023/05/08 09:06:18;;;;;;;7.38;5.60;;;;;;;14.46;35.88;102229.13;5020147;28;20033;-71
2023/05/08 09:08:44;;;;;;;7.65;5.80;;;;;;;14.52;35.78;102234.13;5017967;28;20059;-72
2023/05/08 09:11:09;;;;;;;6.55;5.90;;;;;;;13.97;36.91;102239.47;5001571;28;20509;-71
2023/05/08 09:13:35;;;;;;;7.47;6.20;;;;;;;13.48;38.13;102231.34;5012047;28;20068;-71
2023/05/08 09:16:01;;;;;;;8.85;6.15;;;;;;;14.46;36.19;102224.69;5000145;28;20049;-72
2023/05/08 09:18:26;;;;;;;7.10;5.63;;;;;;;14.99;35.70;102218.38;4996008;28;20307;-71
2023/05/08 09:20:52;;;;;;;8.88;6.25;;;;;;;14.88;35.88;102224.06;5000771;28;20060;-71
2023/05/08 09:23:19;;;;;;;8.35;6.53;;;;;;;14.73;35.95;102222.84;4998143;28;20049;-71
2023/05/08 09:25:51;;;;;;;6.10;5.47;;;;;;;15.87;34.15;102218.50;4995155;28;20124;-71
2023/05/08 09:28:18;;;;;;;;;;;;;;;15.54;34.66;102226.00;4988852;28;20538;-71
2023/05/08 09:30:50;;;;;;;10.95;5.85;;;;;;;15.81;34.58;102234.56;4998121;28;19917;-70
2023/05/08 09:33:16;;;;;;;6.32;5.50;;;;;;;15.98;34.47;102232.09;4995471;28;20427;-71
2023/05/08 09:35:42;;;;;;;9.38;6.00;;;;;;;16.04;34.14;102235.41;4997026;28;20087;-72
2023/05/08 09:38:07;;;;;;;7.28;6.28;;;;;;;16.09;33.41;102238.75;5000644;28;20049;-70
2023/05/08 09:40:32;;;;;;;7.63;5.97;;;;;;;15.94;34.17;102234.91;4995262;28;20041;-71
2023/05/08 09:43:11;;;;;;;7.25;6.40;;;;;;;15.53;35.21;102240.09;5003633;28;20060;-71
2023/05/08 09:45:38;;;;;;;6.38;5.57;;;;;;;15.83;34.47;102243.25;5016019;28;20036;-71
2023/05/08 09:48:05;;;;;;;7.70;6.28;;;;;;;15.84;34.40;102239.72;4991878;28;20053;-70
2023/05/08 09:50:32;;;;;;;9.07;6.50;;;;;;;16.23;34.61;102228.47;4981292;28;20095;-70
2023/05/08 09:52:57;;;;;;;8.57;6.45;;;;;;;16.71;34.04;102237.81;5001964;28;20041;-70
2023/05/08 09:55:23;;;;;;;7.88;6.38;;;;;;;16.92;32.91;102230.72;5019766;28;20021;-69
2023/05/08 09:57:53;;;;;;;8.07;5.95;;;;;;;17.73;32.65;102227.84;5012272;28;23875;-69
2023/05/08 10:00:19;;;;;;;7.82;5.97;;;;;;;17.17;32.68;102233.09;5019482;28;20070;-70
2023/05/08 10:02:58;;;;;;;6.65;5.63;;;;;;;16.24;33.66;102226.66;5005826;28;20047;-70
2023/05/08 10:05:33;;;;;;;8.35;5.93;;;;;;;16.25;34.74;102239.81;5019537;28;20039;-70
2023/05/08 10:08:18;;;;;;;7.78;5.68;;;;;;;16.57;33.78;102219.06;5004980;28;20076;-70
2023/05/08 10:10:43;;;;;;;6.68;5.97;;;;;;;17.03;33.03;102227.59;4993151;28;20041;-70
2023/05/08 10:13:09;;;;;;;9.93;5.50;;;;;;;16.95;33.10;102227.94;4987055;28;20056;-71
2023/05/08 10:15:37;;;;;;;7.13;6.07;;;;;;;16.79;33.48;102225.13;4996986;28;20515;-71
2023/05/08 10:18:05;;;;;;;6.35;5.28;;;;;;;17.41;32.10;102228.44;5000103;28;20049;-71
2023/05/08 10:20:32;;;;;;;7.20;6.50;;;;;;;17.29;33.31;102221.13;4998230;28;20049;-71
2023/05/08 10:22:58;;;;;;;6.63;5.78;;;;;;;17.51;32.52;102222.75;4995493;28;20136;-70
2023/05/08 10:25:24;;;;;;;10.07;6.32;;;;;;;17.14;32.71;102220.03;4994285;28;20030;-71
2023/05/08 10:28:09;;;;;;;7.60;6.10;;;;;;;17.13;32.37;102228.88;4992955;28;20037;-72
2023/05/08 10:30:45;;;;;;;11.40;6.93;;;;;;;17.28;33.08;102224.66;4996752;28;20038;-70
2023/05/08 10:33:14;;;;;;;7.75;6.47;;;;;;;17.03;33.00;102219.69;5000963;28;20553;-72
2023/05/08 10:35:40;;;;;;;11.23;6.63;;;;;;;16.60;34.26;102225.09;5026330;28;20071;-72
2023/05/08 10:38:08;;;;;;;7.93;6.43;;;;;;;16.57;33.99;102224.34;5016258;28;20048;-72
2023/05/08 10:40:34;;;;;;;8.80;6.72;;;;;;;16.57;33.77;102214.66;5017144;28;20052;-73
2023/05/08 10:43:01;;;;;;;8.02;6.35;;;;;;;16.85;33.57;102212.59;5003356;28;20049;-72
2023/05/08 10:45:28;;;;;;;7.75;6.57;;;;;;;16.75;33.93;102206.88;4997247;28;20029;-72
2023/05/08 10:48:27;;;;;;;7.50;6.57;;;;;;;16.58;33.75;102202.31;4997532;28;20057;-71
2023/05/08 10:51:14;;;;;;;9.27;6.00;;;;;;;17.23;33.77;102206.38;4997189;28;20317;-72
2023/05/08 10:53:48;;;;;;;8.85;6.22;;;;;;;17.35;33.54;102196.16;4999845;28;20418;-72
2023/05/08 10:56:13;;;;;;;8.02;7.13;;;;;;;16.85;34.65;102188.84;4999043;28;20075;-72
2023/05/08 10:58:39;;;;;;;8.43;6.78;;;;;;;16.60;34.03;102200.47;5002702;28;20545;-71
2023/05/08 11:01:07;;;;;;;9.15;6.53;;;;;;;16.46;35.28;102200.22;5018792;28;20092;-72
2023/05/08 11:03:44;;;;;;;8.75;7.65;;;;;;;16.93;34.35;102195.47;5006008;28;20058;-72
2023/05/08 11:06:11;;;;;;;10.27;6.50;;;;;;;17.26;34.08;102191.31;4998237;28;20041;-72
2023/05/08 11:08:50;;;;;;;9.45;6.70;;;;;;;16.94;33.12;102189.25;4995813;28;20156;-71
2023/05/08 11:11:25;;;;;;;7.63;6.68;;;;;;;16.99;34.57;102199.63;4998267;28;20029;-72
2023/05/08 11:14:09;;;;;;;10.88;6.90;;;;;;;16.93;34.78;102190.19;5003623;28;20037;-72
2023/05/08 11:16:53;;;;;;;12.05;6.22;;;;;;;17.30;35.09;102195.53;5016128;28;20036;-72
2023/05/08 11:19:26;;;;;;;7.75;6.57;;;;;;;16.96;34.06;102194.47;5008959;28;20655;-73
2023/05/08 11:22:14;;;;;;;12.82;6.55;;;;;;;17.29;34.35;102191.16;5014310;28;20071;-72
2023/05/08 11:24:47;;;;;;;8.95;6.53;;;;;;;16.97;34.16;102188.25;5013991;28;20493;-71
2023/05/08 11:27:13;;;;;;;8.13;6.50;;;;;;;16.67;34.66;102179.94;5012985;28;20041;-73
2023/05/08 11:29:39;;;;;;;7.53;6.50;;;;;;;16.57;34.60;102177.69;4998386;28;20136;-72
2023/05/08 11:32:05;;;;;;;8.98;6.45;;;;;;;16.06;35.60;102180.84;4996397;28;20047;-72
2023/05/08 11:34:43;;;;;;;9.73;7.35;;;;;;;16.27;35.43;102172.00;4994570;28;20377;-72
2023/05/08 11:37:30;;;;;;;9.30;7.88;;;;;;;16.61;33.98;102165.22;4998623;28;20037;-71
2023/05/08 11:40:34;;;;;;;9.55;6.25;;;;;;;17.19;34.23;102166.97;4992885;28;20049;-73